sensor_id;sensor_type;location;lat;lon;timestamp;P1;durP1;ratioP1;P2;durP2;ratioP2
7829;SDS011;3960;51.86894000;5.39848000;2023-04-24T00:00:13;4.90;;;3.08;;
7829;SDS011;3960;51.86894000;5.39848000;2023-04-24T00:02:40;3.45;;;2.80;;
7829;SDS011;3960;51.86894000;5.39848000;2023-04-24T00:05:06;5.30;;;3.05;;
7829;SDS011;3960;51.86894000;5.39848000;2023-04-24T00:07:32;2.90;;;2.60;;
7829;SDS011;3960;51.86894000;5.39848000;2023-04-24T00:09:58;3.20;;;2.65;;
7829;SDS011;3960;51.86894000;5.39848000;2023-04-24T00:12:24;4.10;;;2.63;;
7829;SDS011;3960;51.86894000;5.39848000;2023-04-24T00:14:50;5.93;;;3.03;;
7829;SDS011;3960;51.86894000;5.39848000;2023-04-24T00:17:15;3.42;;;3.10;;
7829;SDS011;3960;51.86894000;5.39848000;2023-04-24T00:19:40;5.32;;;3.90;;
7829;SDS011;3960;51.86894000;5.39848000;2023-04-24T00:22:06;8.32;;;4.90;;
7829;SDS011;3960;51.86894000;5.39848000;2023-04-24T00:24:31;7.22;;;4.63;;
7829;SDS011;3960;51.86894000;5.39848000;2023-04-24T00:26:57;6.30;;;4.80;;
7829;SDS011;3960;51.86894000;5.39848000;2023-04-24T00:29:22;8.10;;;5.53;;
7829;SDS011;3960;51.86894000;5.39848000;2023-04-24T00:31:47;6.07;;;5.32;;
7829;SDS011;3960;51.86894000;5.39848000;2023-04-24T00:34:13;6.90;;;5.50;;
7829;SDS011;3960;51.86894000;5.39848000;2023-04-24T00:36:38;7.88;;;5.38;;
7829;SDS011;3960;51.86894000;5.39848000;2023-04-24T00:39:03;6.15;;;5.30;;
7829;SDS011;3960;51.86894000;5.39848000;2023-04-24T00:41:29;6.95;;;5.82;;
7829;SDS011;3960;51.86894000;5.39848000;2023-04-24T00:43:54;10.70;;;5.90;;
7829;SDS011;3960;51.86894000;5.39848000;2023-04-24T00:46:20;9.82;;;6.45;;
7829;SDS011;3960;51.86894000;5.39848000;2023-04-24T00:48:46;8.90;;;6.85;;
7829;SDS011;3960;51.86894000;5.39848000;2023-04-24T00:51:11;11.13;;;6.82;;
7829;SDS011;3960;51.86894000;5.39848000;2023-04-24T00:53:37;8.68;;;7.45;;
7829;SDS011;3960;51.86894000;5.39848000;2023-04-24T00:56:02;11.27;;;7.70;;
7829;SDS011;3960;51.86894000;5.39848000;2023-04-24T00:58:28;12.27;;;8.02;;
7829;SDS011;3960;51.86894000;5.39848000;2023-04-24T01:00:54;11.35;;;8.68;;
7829;SDS011;3960;51.86894000;5.39848000;2023-04-24T01:03:20;12.00;;;8.15;;
7829;SDS011;3960;51.86894000;5.39848000;2023-04-24T01:05:47;13.18;;;8.93;;
7829;SDS011;3960;51.86894000;5.39848000;2023-04-24T01:08:14;9.88;;;7.43;;
7829;SDS011;3960;51.86894000;5.39848000;2023-04-24T01:10:40;10.55;;;7.20;;
7829;SDS011;3960;51.86894000;5.39848000;2023-04-24T01:13:06;8.75;;;6.10;;
7829;SDS011;3960;51.86894000;5.39848000;2023-04-24T01:15:33;8.95;;;5.63;;
7829;SDS011;3960;51.86894000;5.39848000;2023-04-24T01:17:59;9.48;;;6.72;;
7829;SDS011;3960;51.86894000;5.39848000;2023-04-24T01:20:25;10.38;;;7.75;;
7829;SDS011;3960;51.86894000;5.39848000;2023-04-24T01:22:51;11.82;;;7.55;;
7829;SDS011;3960;51.86894000;5.39848000;2023-04-24T01:25:16;11.60;;;7.25;;
7829;SDS011;3960;51.86894000;5.39848000;2023-04-24T01:27:42;11.77;;;7.57;;
7829;SDS011;3960;51.86894000;5.39848000;2023-04-24T01:30:07;13.43;;;8.57;;
7829;SDS011;3960;51.86894000;5.39848000;2023-04-24T01:32:34;14.40;;;9.85;;
7829;SDS011;3960;51.86894000;5.39848000;2023-04-24T01:35:00;15.40;;;10.73;;
7829;SDS011;3960;51.86894000;5.39848000;2023-04-24T01:37:26;17.85;;;12.05;;
7829;SDS011;3960;51.86894000;5.39848000;2023-04-24T01:39:51;20.73;;;12.73;;
7829;SDS011;3960;51.86894000;5.39848000;2023-04-24T01:42:17;18.13;;;12.27;;
7829;SDS011;3960;51.86894000;5.39848000;2023-04-24T01:44:42;20.45;;;13.05;;
7829;SDS011;3960;51.86894000;5.39848000;2023-04-24T01:47:08;22.55;;;13.52;;
7829;SDS011;3960;51.86894000;5.39848000;2023-04-24T01:49:34;17.65;;;11.40;;
7829;SDS011;3960;51.86894000;5.39848000;2023-04-24T01:51:59;22.25;;;12.25;;
7829;SDS011;3960;51.86894000;5.39848000;2023-04-24T01:54:24;16.58;;;11.02;;
7829;SDS011;3960;51.86894000;5.39848000;2023-04-24T01:56:50;19.73;;;11.70;;
7829;SDS011;3960;51.86894000;5.39848000;2023-04-24T01:59:16;19.80;;;12.23;;
7829;SDS011;3960;51.86894000;5.39848000;2023-04-24T02:01:42;19.67;;;12.05;;
7829;SDS011;3960;51.86894000;5.39848000;2023-04-24T02:04:07;20.63;;;12.93;;
7829;SDS011;3960;51.86894000;5.39848000;2023-04-24T02:06:33;16.67;;;11.50;;
7829;SDS011;3960;51.86894000;5.39848000;2023-04-24T02:08:58;23.10;;;12.90;;
7829;SDS011;3960;51.86894000;5.39848000;2023-04-24T02:11:24;18.70;;;12.27;;
7829;SDS011;3960;51.86894000;5.39848000;2023-04-24T02:13:50;21.58;;;13.15;;
7829;SDS011;3960;51.86894000;5.39848000;2023-04-24T02:16:16;20.30;;;13.27;;
7829;SDS011;3960;51.86894000;5.39848000;2023-04-24T02:18:42;21.70;;;12.75;;
7829;SDS011;3960;51.86894000;5.39848000;2023-04-24T02:21:07;19.45;;;12.60;;
7829;SDS011;3960;51.86894000;5.39848000;2023-04-24T02:23:32;18.40;;;12.30;;
7829;SDS011;3960;51.86894000;5.39848000;2023-04-24T02:25:57;17.20;;;11.75;;
7829;SDS011;3960;51.86894000;5.39848000;2023-04-24T02:28:23;18.98;;;11.77;;
7829;SDS011;3960;51.86894000;5.39848000;2023-04-24T02:30:48;17.13;;;12.15;;
7829;SDS011;3960;51.86894000;5.39848000;2023-04-24T02:33:13;14.38;;;10.15;;
7829;SDS011;3960;51.86894000;5.39848000;2023-04-24T02:35:39;16.48;;;10.48;;
7829;SDS011;3960;51.86894000;5.39848000;2023-04-24T02:38:04;15.52;;;10.85;;
7829;SDS011;3960;51.86894000;5.39848000;2023-04-24T02:40:29;15.45;;;10.30;;
7829;SDS011;3960;51.86894000;5.39848000;2023-04-24T02:42:55;19.38;;;10.88;;
7829;SDS011;3960;51.86894000;5.39848000;2023-04-24T02:45:20;16.83;;;11.82;;
7829;SDS011;3960;51.86894000;5.39848000;2023-04-24T02:47:45;16.65;;;11.98;;
7829;SDS011;3960;51.86894000;5.39848000;2023-04-24T02:50:11;19.20;;;12.30;;
7829;SDS011;3960;51.86894000;5.39848000;2023-04-24T02:52:36;21.30;;;13.40;;
7829;SDS011;3960;51.86894000;5.39848000;2023-04-24T02:55:01;20.90;;;13.73;;
7829;SDS011;3960;51.86894000;5.39848000;2023-04-24T02:57:27;22.20;;;14.45;;
7829;SDS011;3960;51.86894000;5.39848000;2023-04-24T02:59:52;23.23;;;14.63;;
7829;SDS011;3960;51.86894000;5.39848000;2023-04-24T03:02:17;27.08;;;16.67;;
7829;SDS011;3960;51.86894000;5.39848000;2023-04-24T03:04:42;24.17;;;15.93;;
7829;SDS011;3960;51.86894000;5.39848000;2023-04-24T03:07:09;29.42;;;17.00;;
7829;SDS011;3960;51.86894000;5.39848000;2023-04-24T03:09:34;28.48;;;16.17;;
7829;SDS011;3960;51.86894000;5.39848000;2023-04-24T03:11:59;22.30;;;16.10;;
7829;SDS011;3960;51.86894000;5.39848000;2023-04-24T03:14:25;21.40;;;15.00;;
7829;SDS011;3960;51.86894000;5.39848000;2023-04-24T03:16:50;22.92;;;14.60;;
7829;SDS011;3960;51.86894000;5.39848000;2023-04-24T03:19:15;24.45;;;15.70;;
7829;SDS011;3960;51.86894000;5.39848000;2023-04-24T03:21:41;21.05;;;14.35;;
7829;SDS011;3960;51.86894000;5.39848000;2023-04-24T03:24:07;28.42;;;16.30;;
7829;SDS011;3960;51.86894000;5.39848000;2023-04-24T03:26:33;23.33;;;16.27;;
7829;SDS011;3960;51.86894000;5.39848000;2023-04-24T03:28:58;25.40;;;16.92;;
7829;SDS011;3960;51.86894000;5.39848000;2023-04-24T03:31:24;25.70;;;16.67;;
7829;SDS011;3960;51.86894000;5.39848000;2023-04-24T03:33:49;32.75;;;18.73;;
7829;SDS011;3960;51.86894000;5.39848000;2023-04-24T03:36:14;31.85;;;18.48;;
7829;SDS011;3960;51.86894000;5.39848000;2023-04-24T03:38:40;25.08;;;16.77;;
7829;SDS011;3960;51.86894000;5.39848000;2023-04-24T03:41:05;25.52;;;16.83;;
7829;SDS011;3960;51.86894000;5.39848000;2023-04-24T03:43:30;24.65;;;16.88;;
7829;SDS011;3960;51.86894000;5.39848000;2023-04-24T03:45:58;24.40;;;17.25;;
7829;SDS011;3960;51.86894000;5.39848000;2023-04-24T03:48:23;27.20;;;17.42;;
7829;SDS011;3960;51.86894000;5.39848000;2023-04-24T03:50:48;30.73;;;17.60;;
7829;SDS011;3960;51.86894000;5.39848000;2023-04-24T03:53:14;26.52;;;16.95;;
7829;SDS011;3960;51.86894000;5.39848000;2023-04-24T03:55:40;29.02;;;17.52;;
7829;SDS011;3960;51.86894000;5.39848000;2023-04-24T03:58:05;27.67;;;17.27;;
7829;SDS011;3960;51.86894000;5.39848000;2023-04-24T04:00:30;33.97;;;18.25;;
7829;SDS011;3960;51.86894000;5.39848000;2023-04-24T04:02:57;29.10;;;17.30;;
7829;SDS011;3960;51.86894000;5.39848000;2023-04-24T04:05:22;30.33;;;18.02;;
7829;SDS011;3960;51.86894000;5.39848000;2023-04-24T04:07:47;26.33;;;15.45;;
7829;SDS011;3960;51.86894000;5.39848000;2023-04-24T04:10:12;28.67;;;16.98;;
7829;SDS011;3960;51.86894000;5.39848000;2023-04-24T04:12:38;25.83;;;15.13;;
7829;SDS011;3960;51.86894000;5.39848000;2023-04-24T04:15:03;22.52;;;15.27;;
7829;SDS011;3960;51.86894000;5.39848000;2023-04-24T04:17:30;21.42;;;13.73;;
7829;SDS011;3960;51.86894000;5.39848000;2023-04-24T04:19:56;27.95;;;16.38;;
7829;SDS011;3960;51.86894000;5.39848000;2023-04-24T04:22:22;28.63;;;16.75;;
7829;SDS011;3960;51.86894000;5.39848000;2023-04-24T04:24:47;23.23;;;14.65;;
7829;SDS011;3960;51.86894000;5.39848000;2023-04-24T04:27:12;24.55;;;14.38;;
7829;SDS011;3960;51.86894000;5.39848000;2023-04-24T04:29:38;26.52;;;15.60;;
7829;SDS011;3960;51.86894000;5.39848000;2023-04-24T04:32:03;25.73;;;15.63;;
7829;SDS011;3960;51.86894000;5.39848000;2023-04-24T04:34:28;24.35;;;14.15;;
7829;SDS011;3960;51.86894000;5.39848000;2023-04-24T04:36:54;20.13;;;13.38;;
7829;SDS011;3960;51.86894000;5.39848000;2023-04-24T04:39:20;20.67;;;13.68;;
7829;SDS011;3960;51.86894000;5.39848000;2023-04-24T04:41:45;24.25;;;11.95;;
7829;SDS011;3960;51.86894000;5.39848000;2023-04-24T04:44:13;18.63;;;12.27;;
7829;SDS011;3960;51.86894000;5.39848000;2023-04-24T04:46:39;17.83;;;11.50;;
7829;SDS011;3960;51.86894000;5.39848000;2023-04-24T04:49:06;18.25;;;11.52;;
7829;SDS011;3960;51.86894000;5.39848000;2023-04-24T04:51:33;20.70;;;11.40;;
7829;SDS011;3960;51.86894000;5.39848000;2023-04-24T04:53:59;16.15;;;11.60;;
7829;SDS011;3960;51.86894000;5.39848000;2023-04-24T04:56:24;15.82;;;10.70;;
7829;SDS011;3960;51.86894000;5.39848000;2023-04-24T04:58:50;16.75;;;10.65;;
7829;SDS011;3960;51.86894000;5.39848000;2023-04-24T05:01:15;21.17;;;11.98;;
7829;SDS011;3960;51.86894000;5.39848000;2023-04-24T05:03:41;15.93;;;10.35;;
7829;SDS011;3960;51.86894000;5.39848000;2023-04-24T05:06:06;13.15;;;9.10;;
7829;SDS011;3960;51.86894000;5.39848000;2023-04-24T05:08:31;12.30;;;8.50;;
7829;SDS011;3960;51.86894000;5.39848000;2023-04-24T05:10:57;13.52;;;8.93;;
7829;SDS011;3960;51.86894000;5.39848000;2023-04-24T05:13:22;11.73;;;8.80;;
7829;SDS011;3960;51.86894000;5.39848000;2023-04-24T05:15:47;10.70;;;8.23;;
7829;SDS011;3960;51.86894000;5.39848000;2023-04-24T05:18:13;11.02;;;7.75;;
7829;SDS011;3960;51.86894000;5.39848000;2023-04-24T05:20:38;11.65;;;7.47;;
7829;SDS011;3960;51.86894000;5.39848000;2023-04-24T05:23:04;9.35;;;6.63;;
7829;SDS011;3960;51.86894000;5.39848000;2023-04-24T05:25:29;6.05;;;4.50;;
7829;SDS011;3960;51.86894000;5.39848000;2023-04-24T05:27:55;4.88;;;3.28;;
7829;SDS011;3960;51.86894000;5.39848000;2023-04-24T05:30:20;4.07;;;2.70;;
7829;SDS011;3960;51.86894000;5.39848000;2023-04-24T05:32:46;2.58;;;2.03;;
7829;SDS011;3960;51.86894000;5.39848000;2023-04-24T05:35:11;4.30;;;1.98;;
7829;SDS011;3960;51.86894000;5.39848000;2023-04-24T05:37:36;3.63;;;1.80;;
7829;SDS011;3960;51.86894000;5.39848000;2023-04-24T05:40:02;2.60;;;1.90;;
7829;SDS011;3960;51.86894000;5.39848000;2023-04-24T05:42:30;4.45;;;2.28;;
7829;SDS011;3960;51.86894000;5.39848000;2023-04-24T05:44:55;2.20;;;1.90;;
7829;SDS011;3960;51.86894000;5.39848000;2023-04-24T05:47:20;4.05;;;2.50;;
7829;SDS011;3960;51.86894000;5.39848000;2023-04-24T05:49:46;2.55;;;1.90;;
7829;SDS011;3960;51.86894000;5.39848000;2023-04-24T05:52:12;3.60;;;2.20;;
7829;SDS011;3960;51.86894000;5.39848000;2023-04-24T05:54:37;3.05;;;1.70;;
7829;SDS011;3960;51.86894000;5.39848000;2023-04-24T05:57:03;2.22;;;1.40;;
7829;SDS011;3960;51.86894000;5.39848000;2023-04-24T05:59:32;2.15;;;1.42;;
7829;SDS011;3960;51.86894000;5.39848000;2023-04-24T06:01:57;1.70;;;1.30;;
7829;SDS011;3960;51.86894000;5.39848000;2023-04-24T06:04:23;2.45;;;1.80;;
7829;SDS011;3960;51.86894000;5.39848000;2023-04-24T06:06:48;2.58;;;1.67;;
7829;SDS011;3960;51.86894000;5.39848000;2023-04-24T06:09:16;1.98;;;1.77;;
7829;SDS011;3960;51.86894000;5.39848000;2023-04-24T06:11:42;3.05;;;1.70;;
7829;SDS011;3960;51.86894000;5.39848000;2023-04-24T06:14:08;3.03;;;1.48;;
7829;SDS011;3960;51.86894000;5.39848000;2023-04-24T06:16:33;5.97;;;1.52;;
7829;SDS011;3960;51.86894000;5.39848000;2023-04-24T06:18:58;5.85;;;2.00;;
7829;SDS011;3960;51.86894000;5.39848000;2023-04-24T06:21:23;2.72;;;1.85;;
7829;SDS011;3960;51.86894000;5.39848000;2023-04-24T06:23:49;3.08;;;2.10;;
7829;SDS011;3960;51.86894000;5.39848000;2023-04-24T06:26:14;4.30;;;2.22;;
7829;SDS011;3960;51.86894000;5.39848000;2023-04-24T06:28:40;3.28;;;2.08;;
7829;SDS011;3960;51.86894000;5.39848000;2023-04-24T06:31:05;3.38;;;2.20;;
7829;SDS011;3960;51.86894000;5.39848000;2023-04-24T06:33:30;3.70;;;2.60;;
7829;SDS011;3960;51.86894000;5.39848000;2023-04-24T06:35:56;3.40;;;2.45;;
7829;SDS011;3960;51.86894000;5.39848000;2023-04-24T06:38:21;3.42;;;2.38;;
7829;SDS011;3960;51.86894000;5.39848000;2023-04-24T06:40:46;2.88;;;2.10;;
7829;SDS011;3960;51.86894000;5.39848000;2023-04-24T06:43:11;2.00;;;1.60;;
7829;SDS011;3960;51.86894000;5.39848000;2023-04-24T06:45:37;2.20;;;1.90;;
7829;SDS011;3960;51.86894000;5.39848000;2023-04-24T06:48:04;4.95;;;3.22;;
7829;SDS011;3960;51.86894000;5.39848000;2023-04-24T06:50:29;6.90;;;4.53;;
7829;SDS011;3960;51.86894000;5.39848000;2023-04-24T06:52:54;12.00;;;6.78;;
7829;SDS011;3960;51.86894000;5.39848000;2023-04-24T06:55:20;11.02;;;7.00;;
7829;SDS011;3960;51.86894000;5.39848000;2023-04-24T06:57:45;11.57;;;7.82;;
7829;SDS011;3960;51.86894000;5.39848000;2023-04-24T07:00:10;10.80;;;7.32;;
7829;SDS011;3960;51.86894000;5.39848000;2023-04-24T07:02:37;15.05;;;8.30;;
7829;SDS011;3960;51.86894000;5.39848000;2023-04-24T07:05:02;14.25;;;8.02;;
7829;SDS011;3960;51.86894000;5.39848000;2023-04-24T07:07:28;15.48;;;9.13;;
7829;SDS011;3960;51.86894000;5.39848000;2023-04-24T07:09:54;21.70;;;9.60;;
7829;SDS011;3960;51.86894000;5.39848000;2023-04-24T07:12:21;17.65;;;10.15;;
7829;SDS011;3960;51.86894000;5.39848000;2023-04-24T07:14:46;17.80;;;11.15;;
7829;SDS011;3960;51.86894000;5.39848000;2023-04-24T07:17:12;21.55;;;11.07;;
7829;SDS011;3960;51.86894000;5.39848000;2023-04-24T07:19:38;21.15;;;10.88;;
7829;SDS011;3960;51.86894000;5.39848000;2023-04-24T07:22:03;19.85;;;10.63;;
7829;SDS011;3960;51.86894000;5.39848000;2023-04-24T07:24:29;19.25;;;11.10;;
7829;SDS011;3960;51.86894000;5.39848000;2023-04-24T07:26:57;23.15;;;11.05;;
7829;SDS011;3960;51.86894000;5.39848000;2023-04-24T07:29:22;27.65;;;11.38;;
7829;SDS011;3960;51.86894000;5.39848000;2023-04-24T07:31:47;21.92;;;10.25;;
7829;SDS011;3960;51.86894000;5.39848000;2023-04-24T07:34:13;18.17;;;10.60;;
7829;SDS011;3960;51.86894000;5.39848000;2023-04-24T07:36:38;21.50;;;9.57;;
7829;SDS011;3960;51.86894000;5.39848000;2023-04-24T07:39:04;21.42;;;10.00;;
7829;SDS011;3960;51.86894000;5.39848000;2023-04-24T07:41:29;20.85;;;10.05;;
7829;SDS011;3960;51.86894000;5.39848000;2023-04-24T07:43:55;20.20;;;10.93;;
7829;SDS011;3960;51.86894000;5.39848000;2023-04-24T07:46:20;17.55;;;10.43;;
7829;SDS011;3960;51.86894000;5.39848000;2023-04-24T07:48:46;21.35;;;10.32;;
7829;SDS011;3960;51.86894000;5.39848000;2023-04-24T07:51:14;20.60;;;9.18;;
7829;SDS011;3960;51.86894000;5.39848000;2023-04-24T07:53:40;24.38;;;9.40;;
7829;SDS011;3960;51.86894000;5.39848000;2023-04-24T07:56:05;25.50;;;8.13;;
7829;SDS011;3960;51.86894000;5.39848000;2023-04-24T07:58:31;24.50;;;8.70;;
7829;SDS011;3960;51.86894000;5.39848000;2023-04-24T08:00:56;26.90;;;8.75;;
7829;SDS011;3960;51.86894000;5.39848000;2023-04-24T08:03:21;27.20;;;9.13;;
7829;SDS011;3960;51.86894000;5.39848000;2023-04-24T08:05:47;25.30;;;8.48;;
7829;SDS011;3960;51.86894000;5.39848000;2023-04-24T08:08:12;24.73;;;8.27;;
7829;SDS011;3960;51.86894000;5.39848000;2023-04-24T08:10:38;27.10;;;8.80;;
7829;SDS011;3960;51.86894000;5.39848000;2023-04-24T08:13:03;32.10;;;8.45;;
7829;SDS011;3960;51.86894000;5.39848000;2023-04-24T08:15:28;26.67;;;7.65;;
7829;SDS011;3960;51.86894000;5.39848000;2023-04-24T08:17:54;18.73;;;6.72;;
7829;SDS011;3960;51.86894000;5.39848000;2023-04-24T08:20:19;25.77;;;6.55;;
7829;SDS011;3960;51.86894000;5.39848000;2023-04-24T08:22:44;20.83;;;5.72;;
7829;SDS011;3960;51.86894000;5.39848000;2023-04-24T08:25:12;24.48;;;6.53;;
7829;SDS011;3960;51.86894000;5.39848000;2023-04-24T08:27:37;24.40;;;6.38;;
7829;SDS011;3960;51.86894000;5.39848000;2023-04-24T08:30:04;24.52;;;6.65;;
7829;SDS011;3960;51.86894000;5.39848000;2023-04-24T08:32:30;21.45;;;5.53;;
7829;SDS011;3960;51.86894000;5.39848000;2023-04-24T08:34:55;20.38;;;4.78;;
7829;SDS011;3960;51.86894000;5.39848000;2023-04-24T08:37:22;12.63;;;4.07;;
7829;SDS011;3960;51.86894000;5.39848000;2023-04-24T08:39:48;18.48;;;4.55;;
7829;SDS011;3960;51.86894000;5.39848000;2023-04-24T08:42:19;18.50;;;4.32;;
7829;SDS011;3960;51.86894000;5.39848000;2023-04-24T08:44:46;23.95;;;4.43;;
7829;SDS011;3960;51.86894000;5.39848000;2023-04-24T08:47:13;20.58;;;4.28;;
7829;SDS011;3960;51.86894000;5.39848000;2023-04-24T08:49:40;23.48;;;4.55;;
7829;SDS011;3960;51.86894000;5.39848000;2023-04-24T08:52:05;17.15;;;3.90;;
7829;SDS011;3960;51.86894000;5.39848000;2023-04-24T08:54:30;20.38;;;4.35;;
7829;SDS011;3960;51.86894000;5.39848000;2023-04-24T08:56:58;18.45;;;4.10;;
7829;SDS011;3960;51.86894000;5.39848000;2023-04-24T08:59:26;13.27;;;3.60;;
7829;SDS011;3960;51.86894000;5.39848000;2023-04-24T09:01:53;18.38;;;3.83;;
7829;SDS011;3960;51.86894000;5.39848000;2023-04-24T09:04:20;15.55;;;4.32;;
7829;SDS011;3960;51.86894000;5.39848000;2023-04-24T09:06:47;17.55;;;3.65;;
7829;SDS011;3960;51.86894000;5.39848000;2023-04-24T09:09:13;12.88;;;3.25;;
7829;SDS011;3960;51.86894000;5.39848000;2023-04-24T09:11:41;16.80;;;3.70;;
7829;SDS011;3960;51.86894000;5.39848000;2023-04-24T09:14:06;15.35;;;3.90;;
7829;SDS011;3960;51.86894000;5.39848000;2023-04-24T09:16:34;16.67;;;3.70;;
7829;SDS011;3960;51.86894000;5.39848000;2023-04-24T09:19:00;17.65;;;3.50;;
7829;SDS011;3960;51.86894000;5.39848000;2023-04-24T09:21:26;17.65;;;3.25;;
7829;SDS011;3960;51.86894000;5.39848000;2023-04-24T09:23:58;12.77;;;3.63;;
7829;SDS011;3960;51.86894000;5.39848000;2023-04-24T09:26:25;13.43;;;3.58;;
7829;SDS011;3960;51.86894000;5.39848000;2023-04-24T09:28:53;11.23;;;3.03;;
7829;SDS011;3960;51.86894000;5.39848000;2023-04-24T09:31:19;13.52;;;2.92;;
7829;SDS011;3960;51.86894000;5.39848000;2023-04-24T09:34:00;12.13;;;3.33;;
7829;SDS011;3960;51.86894000;5.39848000;2023-04-24T09:39:02;12.88;;;3.15;;
7829;SDS011;3960;51.86894000;5.39848000;2023-04-24T09:41:31;11.77;;;3.47;;
7829;SDS011;3960;51.86894000;5.39848000;2023-04-24T09:43:58;13.27;;;2.92;;
7829;SDS011;3960;51.86894000;5.39848000;2023-04-24T09:46:36;9.27;;;2.83;;
7829;SDS011;3960;51.86894000;5.39848000;2023-04-24T09:49:14;8.55;;;2.72;;
7829;SDS011;3960;51.86894000;5.39848000;2023-04-24T09:51:41;9.00;;;2.88;;
7829;SDS011;3960;51.86894000;5.39848000;2023-04-24T09:54:17;10.35;;;2.90;;
7829;SDS011;3960;51.86894000;5.39848000;2023-04-24T09:56:45;6.82;;;2.00;;
7829;SDS011;3960;51.86894000;5.39848000;2023-04-24T09:59:13;7.28;;;2.28;;
7829;SDS011;3960;51.86894000;5.39848000;2023-04-24T10:01:39;9.02;;;2.92;;
7829;SDS011;3960;51.86894000;5.39848000;2023-04-24T10:04:14;10.35;;;2.88;;
7829;SDS011;3960;51.86894000;5.39848000;2023-04-24T10:06:41;8.80;;;2.65;;
7829;SDS011;3960;51.86894000;5.39848000;2023-04-24T10:09:07;10.18;;;2.45;;
7829;SDS011;3960;51.86894000;5.39848000;2023-04-24T10:11:35;7.85;;;2.20;;
7829;SDS011;3960;51.86894000;5.39848000;2023-04-24T10:14:01;13.25;;;2.60;;
7829;SDS011;3960;51.86894000;5.39848000;2023-04-24T10:16:26;6.57;;;2.08;;
7829;SDS011;3960;51.86894000;5.39848000;2023-04-24T10:21:25;9.38;;;2.42;;
7829;SDS011;3960;51.86894000;5.39848000;2023-04-24T10:23:55;7.13;;;2.08;;
7829;SDS011;3960;51.86894000;5.39848000;2023-04-24T10:26:21;5.80;;;1.90;;
7829;SDS011;3960;51.86894000;5.39848000;2023-04-24T10:31:21;12.55;;;2.03;;
7829;SDS011;3960;51.86894000;5.39848000;2023-04-24T10:33:47;5.03;;;1.58;;
7829;SDS011;3960;51.86894000;5.39848000;2023-04-24T10:36:16;5.97;;;1.40;;
7829;SDS011;3960;51.86894000;5.39848000;2023-04-24T10:38:44;5.97;;;1.77;;
7829;SDS011;3960;51.86894000;5.39848000;2023-04-24T10:41:12;5.05;;;1.60;;
7829;SDS011;3960;51.86894000;5.39848000;2023-04-24T10:43:44;4.40;;;1.55;;
7829;SDS011;3960;51.86894000;5.39848000;2023-04-24T10:46:10;4.10;;;1.20;;
7829;SDS011;3960;51.86894000;5.39848000;2023-04-24T10:48:53;3.58;;;1.10;;
7829;SDS011;3960;51.86894000;5.39848000;2023-04-24T10:51:49;3.80;;;1.10;;
7829;SDS011;3960;51.86894000;5.39848000;2023-04-24T10:59:45;5.90;;;1.77;;
7829;SDS011;3960;51.86894000;5.39848000;2023-04-24T11:02:13;7.13;;;1.75;;
7829;SDS011;3960;51.86894000;5.39848000;2023-04-24T11:07:09;5.13;;;1.60;;
7829;SDS011;3960;51.86894000;5.39848000;2023-04-24T11:09:37;6.65;;;1.50;;
7829;SDS011;3960;51.86894000;5.39848000;2023-04-24T11:12:07;4.70;;;1.30;;
7829;SDS011;3960;51.86894000;5.39848000;2023-04-24T11:15:21;8.25;;;1.75;;
7829;SDS011;3960;51.86894000;5.39848000;2023-04-24T11:17:32;5.25;;;1.60;;
7829;SDS011;3960;51.86894000;5.39848000;2023-04-24T11:20:06;6.82;;;1.52;;
7829;SDS011;3960;51.86894000;5.39848000;2023-04-24T11:22:34;6.80;;;1.50;;
7829;SDS011;3960;51.86894000;5.39848000;2023-04-24T11:25:01;7.82;;;1.83;;
7829;SDS011;3960;51.86894000;5.39848000;2023-04-24T11:27:38;4.85;;;1.35;;
7829;SDS011;3960;51.86894000;5.39848000;2023-04-24T11:30:08;3.10;;;1.00;;
7829;SDS011;3960;51.86894000;5.39848000;2023-04-24T11:32:40;1.77;;;0.85;;
7829;SDS011;3960;51.86894000;5.39848000;2023-04-24T11:35:21;2.53;;;1.42;;
7829;SDS011;3960;51.86894000;5.39848000;2023-04-24T11:37:55;5.60;;;1.15;;
7829;SDS011;3960;51.86894000;5.39848000;2023-04-24T11:40:21;6.43;;;1.60;;
7829;SDS011;3960;51.86894000;5.39848000;2023-04-24T11:42:51;6.05;;;1.10;;
7829;SDS011;3960;51.86894000;5.39848000;2023-04-24T11:47:56;3.00;;;0.93;;
7829;SDS011;3960;51.86894000;5.39848000;2023-04-24T11:52:54;1.10;;;0.83;;
7829;SDS011;3960;51.86894000;5.39848000;2023-04-24T11:55:25;2.97;;;1.02;;
7829;SDS011;3960;51.86894000;5.39848000;2023-04-24T11:58:02;4.25;;;1.08;;
7829;SDS011;3960;51.86894000;5.39848000;2023-04-24T12:00:31;3.30;;;1.00;;
7829;SDS011;3960;51.86894000;5.39848000;2023-04-24T12:03:06;7.65;;;1.50;;
7829;SDS011;3960;51.86894000;5.39848000;2023-04-24T12:05:37;4.82;;;1.27;;
7829;SDS011;3960;51.86894000;5.39848000;2023-04-24T12:08:06;8.73;;;1.63;;
7829;SDS011;3960;51.86894000;5.39848000;2023-04-24T12:10:32;6.10;;;1.50;;
7829;SDS011;3960;51.86894000;5.39848000;2023-04-24T12:12:58;7.13;;;1.60;;
7829;SDS011;3960;51.86894000;5.39848000;2023-04-24T12:15:27;7.43;;;1.73;;
7829;SDS011;3960;51.86894000;5.39848000;2023-04-24T12:17:55;8.18;;;1.85;;
7829;SDS011;3960;51.86894000;5.39848000;2023-04-24T12:20:26;7.70;;;2.22;;
7829;SDS011;3960;51.86894000;5.39848000;2023-04-24T12:22:56;4.47;;;1.50;;
7829;SDS011;3960;51.86894000;5.39848000;2023-04-24T12:25:25;6.10;;;1.08;;
7829;SDS011;3960;51.86894000;5.39848000;2023-04-24T12:28:16;6.50;;;1.40;;
7829;SDS011;3960;51.86894000;5.39848000;2023-04-24T12:30:42;4.82;;;1.42;;
7829;SDS011;3960;51.86894000;5.39848000;2023-04-24T12:33:16;8.50;;;1.65;;
7829;SDS011;3960;51.86894000;5.39848000;2023-04-24T12:35:45;5.55;;;1.52;;
7829;SDS011;3960;51.86894000;5.39848000;2023-04-24T12:38:13;3.67;;;1.55;;
7829;SDS011;3960;51.86894000;5.39848000;2023-04-24T12:40:39;2.88;;;1.25;;
7829;SDS011;3960;51.86894000;5.39848000;2023-04-24T12:43:13;7.22;;;1.40;;
7829;SDS011;3960;51.86894000;5.39848000;2023-04-24T12:45:40;6.75;;;1.38;;
7829;SDS011;3960;51.86894000;5.39848000;2023-04-24T12:48:05;5.50;;;1.30;;
7829;SDS011;3960;51.86894000;5.39848000;2023-04-24T12:50:33;3.35;;;1.40;;
7829;SDS011;3960;51.86894000;5.39848000;2023-04-24T12:52:59;2.38;;;1.20;;
7829;SDS011;3960;51.86894000;5.39848000;2023-04-24T12:55:25;5.72;;;1.73;;
7829;SDS011;3960;51.86894000;5.39848000;2023-04-24T12:57:50;5.32;;;1.25;;
7829;SDS011;3960;51.86894000;5.39848000;2023-04-24T13:00:22;4.97;;;1.45;;
7829;SDS011;3960;51.86894000;5.39848000;2023-04-24T13:02:49;2.83;;;1.20;;
7829;SDS011;3960;51.86894000;5.39848000;2023-04-24T13:05:17;5.05;;;1.45;;
7829;SDS011;3960;51.86894000;5.39848000;2023-04-24T13:07:42;8.00;;;1.30;;
7829;SDS011;3960;51.86894000;5.39848000;2023-04-24T13:10:08;8.82;;;1.40;;
7829;SDS011;3960;51.86894000;5.39848000;2023-04-24T13:12:34;5.47;;;1.65;;
7829;SDS011;3960;51.86894000;5.39848000;2023-04-24T13:15:03;10.55;;;1.92;;
7829;SDS011;3960;51.86894000;5.39848000;2023-04-24T13:17:35;5.65;;;1.27;;
7829;SDS011;3960;51.86894000;5.39848000;2023-04-24T13:20:01;5.47;;;1.70;;